sensor_id;sensor_type;location;lat;lon;timestamp;temperature;humidity
2625;DHT22;1322;53.256;10.386;2023-01-01T00:02:04;15.30;99.90
2625;DHT22;1322;53.256;10.386;2023-01-01T00:04:32;15.30;99.90
2625;DHT22;1322;53.256;10.386;2023-01-01T00:06:59;15.40;99.90
2625;DHT22;1322;53.256;10.386;2023-01-01T00:09:25;15.30;99.90
2625;DHT22;1322;53.256;10.386;2023-01-01T00:12:09;15.50;99.90
2625;DHT22;1322;53.256;10.386;2023-01-01T00:14:35;15.60;99.90
2625;DHT22;1322;53.256;10.386;2023-01-01T00:17:01;15.60;99.90
2625;DHT22;1322;53.256;10.386;2023-01-01T00:19:27;15.70;99.90
2625;DHT22;1322;53.256;10.386;2023-01-01T00:21:52;15.60;99.90
2625;DHT22;1322;53.256;10.386;2023-01-01T00:24:18;15.70;99.90
2625;DHT22;1322;53.256;10.386;2023-01-01T00:26:44;15.70;99.90
2625;DHT22;1322;53.256;10.386;2023-01-01T00:29:09;15.60;99.90
2625;DHT22;1322;53.256;10.386;2023-01-01T00:31:35;15.70;99.90
2625;DHT22;1322;53.256;10.386;2023-01-01T00:34:01;16.00;99.90
2625;DHT22;1322;53.256;10.386;2023-01-01T00:36:27;15.70;99.90
2625;DHT22;1322;53.256;10.386;2023-01-01T00:38:54;15.70;99.90
2625;DHT22;1322;53.256;10.386;2023-01-01T00:41:20;15.80;99.90
2625;DHT22;1322;53.256;10.386;2023-01-01T00:43:46;15.80;99.90
2625;DHT22;1322;53.256;10.386;2023-01-01T00:46:12;15.90;99.90
2625;DHT22;1322;53.256;10.386;2023-01-01T00:48:38;15.80;99.90
2625;DHT22;1322;53.256;10.386;2023-01-01T00:51:04;15.90;99.90
2625;DHT22;1322;53.256;10.386;2023-01-01T00:53:30;15.90;99.90
2625;DHT22;1322;53.256;10.386;2023-01-01T00:55:56;16.00;99.90
2625;DHT22;1322;53.256;10.386;2023-01-01T00:58:23;15.80;99.90
2625;DHT22;1322;53.256;10.386;2023-01-01T01:00:50;15.80;99.90
2625;DHT22;1322;53.256;10.386;2023-01-01T01:03:17;15.80;99.90
2625;DHT22;1322;53.256;10.386;2023-01-01T01:08:32;15.80;99.90
2625;DHT22;1322;53.256;10.386;2023-01-01T01:13:30;16.40;99.90
2625;DHT22;1322;53.256;10.386;2023-01-01T01:15:56;16.00;99.90
2625;DHT22;1322;53.256;10.386;2023-01-01T01:18:21;16.00;99.90
2625;DHT22;1322;53.256;10.386;2023-01-01T01:20:51;15.90;99.90
2625;DHT22;1322;53.256;10.386;2023-01-01T01:23:18;15.90;99.90
2625;DHT22;1322;53.256;10.386;2023-01-01T01:25:44;16.10;99.90
2625;DHT22;1322;53.256;10.386;2023-01-01T01:28:09;16.00;99.90
2625;DHT22;1322;53.256;10.386;2023-01-01T01:30:39;16.00;99.90
2625;DHT22;1322;53.256;10.386;2023-01-01T01:33:04;16.10;99.90
2625;DHT22;1322;53.256;10.386;2023-01-01T01:35:30;15.90;99.90
2625;DHT22;1322;53.256;10.386;2023-01-01T01:37:57;15.90;99.90
2625;DHT22;1322;53.256;10.386;2023-01-01T01:40:23;16.00;99.90
2625;DHT22;1322;53.256;10.386;2023-01-01T01:42:50;15.90;99.90
2625;DHT22;1322;53.256;10.386;2023-01-01T01:45:17;15.90;99.90
2625;DHT22;1322;53.256;10.386;2023-01-01T01:47:55;16.00;99.90
2625;DHT22;1322;53.256;10.386;2023-01-01T01:50:26;16.00;99.90
2625;DHT22;1322;53.256;10.386;2023-01-01T01:53:26;16.00;99.90
2625;DHT22;1322;53.256;10.386;2023-01-01T01:55:50;16.00;99.90
2625;DHT22;1322;53.256;10.386;2023-01-01T01:58:16;16.00;99.90
2625;DHT22;1322;53.256;10.386;2023-01-01T02:00:42;16.20;99.90
2625;DHT22;1322;53.256;10.386;2023-01-01T02:03:13;16.00;99.90
2625;DHT22;1322;53.256;10.386;2023-01-01T02:05:42;16.10;99.90
2625;DHT22;1322;53.256;10.386;2023-01-01T02:08:08;16.00;99.90
2625;DHT22;1322;53.256;10.386;2023-01-01T02:10:36;16.00;99.90
2625;DHT22;1322;53.256;10.386;2023-01-01T02:13:02;16.00;99.90
2625;DHT22;1322;53.256;10.386;2023-01-01T02:15:33;16.00;99.90
2625;DHT22;1322;53.256;10.386;2023-01-01T02:18:12;16.00;99.90
2625;DHT22;1322;53.256;10.386;2023-01-01T02:20:45;16.10;99.90
2625;DHT22;1322;53.256;10.386;2023-01-01T02:31:42;16.00;99.90
2625;DHT22;1322;53.256;10.386;2023-01-01T02:34:13;16.10;99.90
2625;DHT22;1322;53.256;10.386;2023-01-01T02:36:46;16.00;99.90
2625;DHT22;1322;53.256;10.386;2023-01-01T02:39:14;16.00;99.90
2625;DHT22;1322;53.256;10.386;2023-01-01T02:41:44;16.00;99.90
2625;DHT22;1322;53.256;10.386;2023-01-01T02:44:11;16.10;99.90
2625;DHT22;1322;53.256;10.386;2023-01-01T02:46:37;16.00;99.90
2625;DHT22;1322;53.256;10.386;2023-01-01T02:49:03;16.10;99.90
2625;DHT22;1322;53.256;10.386;2023-01-01T02:52:01;16.10;99.90
2625;DHT22;1322;53.256;10.386;2023-01-01T02:54:47;16.00;99.90
2625;DHT22;1322;53.256;10.386;2023-01-01T02:57:39;16.00;99.90
2625;DHT22;1322;53.256;10.386;2023-01-01T03:00:10;16.10;99.90
2625;DHT22;1322;53.256;10.386;2023-01-01T03:08:36;16.00;99.90
2625;DHT22;1322;53.256;10.386;2023-01-01T03:11:10;15.80;99.90
2625;DHT22;1322;53.256;10.386;2023-01-01T03:13:47;15.90;99.90
2625;DHT22;1322;53.256;10.386;2023-01-01T03:16:23;15.90;99.90
2625;DHT22;1322;53.256;10.386;2023-01-01T03:19:11;15.80;99.90
2625;DHT22;1322;53.256;10.386;2023-01-01T03:21:52;15.70;99.90
2625;DHT22;1322;53.256;10.386;2023-01-01T03:24:44;15.70;99.90
2625;DHT22;1322;53.256;10.386;2023-01-01T03:27:30;15.70;99.90
2625;DHT22;1322;53.256;10.386;2023-01-01T03:30:01;15.80;99.90
2625;DHT22;1322;53.256;10.386;2023-01-01T03:32:37;15.80;99.90
2625;DHT22;1322;53.256;10.386;2023-01-01T03:35:23;15.80;99.90
2625;DHT22;1322;53.256;10.386;2023-01-01T03:37:53;16.00;99.90
2625;DHT22;1322;53.256;10.386;2023-01-01T03:40:21;15.70;99.90
2625;DHT22;1322;53.256;10.386;2023-01-01T03:42:53;15.60;99.90
2625;DHT22;1322;53.256;10.386;2023-01-01T03:45:28;15.50;99.90
2625;DHT22;1322;53.256;10.386;2023-01-01T03:47:55;15.50;99.90
2625;DHT22;1322;53.256;10.386;2023-01-01T03:50:29;15.40;99.90
2625;DHT22;1322;53.256;10.386;2023-01-01T03:53:02;15.40;99.90
2625;DHT22;1322;53.256;10.386;2023-01-01T03:58:41;15.30;99.90
2625;DHT22;1322;53.256;10.386;2023-01-01T04:01:25;15.30;99.90
2625;DHT22;1322;53.256;10.386;2023-01-01T04:03:51;15.30;99.90
2625;DHT22;1322;53.256;10.386;2023-01-01T04:06:17;15.40;99.90
2625;DHT22;1322;53.256;10.386;2023-01-01T04:08:45;15.50;99.90
2625;DHT22;1322;53.256;10.386;2023-01-01T04:11:17;15.60;99.90
2625;DHT22;1322;53.256;10.386;2023-01-01T04:14:02;15.60;99.90
2625;DHT22;1322;53.256;10.386;2023-01-01T04:16:28;15.60;99.90
2625;DHT22;1322;53.256;10.386;2023-01-01T04:18:54;15.70;99.90
2625;DHT22;1322;53.256;10.386;2023-01-01T04:21:19;15.60;99.90
2625;DHT22;1322;53.256;10.386;2023-01-01T04:23:45;15.50;99.90
2625;DHT22;1322;53.256;10.386;2023-01-01T04:26:12;15.60;99.90
2625;DHT22;1322;53.256;10.386;2023-01-01T04:28:39;15.50;99.90
2625;DHT22;1322;53.256;10.386;2023-01-01T04:31:06;15.60;99.90
2625;DHT22;1322;53.256;10.386;2023-01-01T04:33:31;15.60;99.90
2625;DHT22;1322;53.256;10.386;2023-01-01T04:36:05;15.60;99.90
2625;DHT22;1322;53.256;10.386;2023-01-01T04:38:35;15.70;99.90
2625;DHT22;1322;53.256;10.386;2023-01-01T04:41:02;15.60;99.90
2625;DHT22;1322;53.256;10.386;2023-01-01T04:43:28;15.60;99.90
2625;DHT22;1322;53.256;10.386;2023-01-01T04:46:02;15.60;99.90
2625;DHT22;1322;53.256;10.386;2023-01-01T04:48:29;15.70;99.90
2625;DHT22;1322;53.256;10.386;2023-01-01T04:51:00;15.60;99.90
2625;DHT22;1322;53.256;10.386;2023-01-01T04:53:29;15.60;99.90
2625;DHT22;1322;53.256;10.386;2023-01-01T04:55:55;15.80;99.90
2625;DHT22;1322;53.256;10.386;2023-01-01T04:58:20;15.70;99.90
2625;DHT22;1322;53.256;10.386;2023-01-01T05:00:49;15.80;99.90
2625;DHT22;1322;53.256;10.386;2023-01-01T05:03:16;15.70;99.90
2625;DHT22;1322;53.256;10.386;2023-01-01T05:05:42;15.70;99.90
2625;DHT22;1322;53.256;10.386;2023-01-01T05:08:08;15.70;99.90
2625;DHT22;1322;53.256;10.386;2023-01-01T05:10:33;15.80;99.90
2625;DHT22;1322;53.256;10.386;2023-01-01T05:12:59;15.90;99.90
2625;DHT22;1322;53.256;10.386;2023-01-01T05:15:24;15.90;99.90
2625;DHT22;1322;53.256;10.386;2023-01-01T05:17:50;15.70;99.90
2625;DHT22;1322;53.256;10.386;2023-01-01T05:20:16;15.70;99.90
2625;DHT22;1322;53.256;10.386;2023-01-01T05:22:41;15.70;99.90
2625;DHT22;1322;53.256;10.386;2023-01-01T05:25:07;15.70;99.90
2625;DHT22;1322;53.256;10.386;2023-01-01T05:27:33;15.90;99.90
2625;DHT22;1322;53.256;10.386;2023-01-01T05:29:58;15.90;99.90
2625;DHT22;1322;53.256;10.386;2023-01-01T05:32:24;15.70;99.90
2625;DHT22;1322;53.256;10.386;2023-01-01T05:34:50;15.70;99.90
2625;DHT22;1322;53.256;10.386;2023-01-01T05:37:15;15.90;99.90
2625;DHT22;1322;53.256;10.386;2023-01-01T05:39:41;15.70;99.90
2625;DHT22;1322;53.256;10.386;2023-01-01T05:42:07;15.70;99.90
2625;DHT22;1322;53.256;10.386;2023-01-01T05:44:32;15.60;99.90
2625;DHT22;1322;53.256;10.386;2023-01-01T05:46:58;15.60;99.90
2625;DHT22;1322;53.256;10.386;2023-01-01T05:49:23;15.70;99.90
2625;DHT22;1322;53.256;10.386;2023-01-01T05:51:49;15.60;99.90
2625;DHT22;1322;53.256;10.386;2023-01-01T05:54:15;15.60;99.90
2625;DHT22;1322;53.256;10.386;2023-01-01T05:56:40;15.60;99.90
2625;DHT22;1322;53.256;10.386;2023-01-01T05:59:06;15.50;99.90
2625;DHT22;1322;53.256;10.386;2023-01-01T06:01:32;15.60;99.90
2625;DHT22;1322;53.256;10.386;2023-01-01T06:03:59;15.70;99.90
2625;DHT22;1322;53.256;10.386;2023-01-01T06:06:27;15.50;99.90
2625;DHT22;1322;53.256;10.386;2023-01-01T06:08:55;15.70;99.90
2625;DHT22;1322;53.256;10.386;2023-01-01T06:11:21;15.50;99.90
2625;DHT22;1322;53.256;10.386;2023-01-01T06:13:47;15.50;99.90
2625;DHT22;1322;53.256;10.386;2023-01-01T06:16:15;15.50;99.90
2625;DHT22;1322;53.256;10.386;2023-01-01T06:18:41;15.60;99.90
2625;DHT22;1322;53.256;10.386;2023-01-01T06:21:09;15.40;99.90
2625;DHT22;1322;53.256;10.386;2023-01-01T06:23:36;15.40;99.90
2625;DHT22;1322;53.256;10.386;2023-01-01T06:28:30;15.50;99.90
2625;DHT22;1322;53.256;10.386;2023-01-01T06:30:59;15.60;99.90
2625;DHT22;1322;53.256;10.386;2023-01-01T06:33:25;15.50;99.90
2625;DHT22;1322;53.256;10.386;2023-01-01T06:35:51;15.50;99.90
2625;DHT22;1322;53.256;10.386;2023-01-01T06:38:17;15.50;99.90
2625;DHT22;1322;53.256;10.386;2023-01-01T06:40:42;15.50;99.90
2625;DHT22;1322;53.256;10.386;2023-01-01T06:43:08;15.60;99.90
2625;DHT22;1322;53.256;10.386;2023-01-01T06:45:33;14.60;99.90
2625;DHT22;1322;53.256;10.386;2023-01-01T06:47:59;15.50;99.90
2625;DHT22;1322;53.256;10.386;2023-01-01T06:50:24;15.50;99.90
2625;DHT22;1322;53.256;10.386;2023-01-01T06:52:50;15.50;99.90
2625;DHT22;1322;53.256;10.386;2023-01-01T06:55:16;15.40;99.90
2625;DHT22;1322;53.256;10.386;2023-01-01T06:57:41;15.40;99.90
2625;DHT22;1322;53.256;10.386;2023-01-01T07:00:07;15.40;99.90
2625;DHT22;1322;53.256;10.386;2023-01-01T07:02:33;15.40;99.90
2625;DHT22;1322;53.256;10.386;2023-01-01T07:04:58;15.40;99.90
2625;DHT22;1322;53.256;10.386;2023-01-01T07:07:24;15.50;99.90
2625;DHT22;1322;53.256;10.386;2023-01-01T07:09:50;15.40;99.90
2625;DHT22;1322;53.256;10.386;2023-01-01T07:12:15;15.40;99.90
2625;DHT22;1322;53.256;10.386;2023-01-01T07:14:41;15.40;99.90
2625;DHT22;1322;53.256;10.386;2023-01-01T07:17:06;15.30;99.90
2625;DHT22;1322;53.256;10.386;2023-01-01T07:19:32;15.30;99.90
2625;DHT22;1322;53.256;10.386;2023-01-01T07:21:57;15.20;99.90
2625;DHT22;1322;53.256;10.386;2023-01-01T07:24:23;15.30;99.90
2625;DHT22;1322;53.256;10.386;2023-01-01T07:26:49;15.40;99.90
2625;DHT22;1322;53.256;10.386;2023-01-01T07:29:14;15.20;99.90
2625;DHT22;1322;53.256;10.386;2023-01-01T07:31:42;15.20;99.90
2625;DHT22;1322;53.256;10.386;2023-01-01T07:34:13;15.20;99.90
2625;DHT22;1322;53.256;10.386;2023-01-01T07:36:39;15.20;99.90
2625;DHT22;1322;53.256;10.386;2023-01-01T07:39:05;15.30;99.90
2625;DHT22;1322;53.256;10.386;2023-01-01T07:41:31;15.20;99.90
2625;DHT22;1322;53.256;10.386;2023-01-01T07:43:56;15.60;99.90
2625;DHT22;1322;53.256;10.386;2023-01-01T07:46:22;15.10;99.90
2625;DHT22;1322;53.256;10.386;2023-01-01T07:48:48;15.10;99.90
2625;DHT22;1322;53.256;10.386;2023-01-01T07:51:13;15.10;99.90
2625;DHT22;1322;53.256;10.386;2023-01-01T07:53:39;15.10;99.90
2625;DHT22;1322;53.256;10.386;2023-01-01T07:56:05;15.20;99.90
2625;DHT22;1322;53.256;10.386;2023-01-01T07:58:31;15.20;99.90
2625;DHT22;1322;53.256;10.386;2023-01-01T08:00:56;15.30;99.90
2625;DHT22;1322;53.256;10.386;2023-01-01T08:03:22;15.20;99.90
2625;DHT22;1322;53.256;10.386;2023-01-01T08:05:47;15.30;99.90
2625;DHT22;1322;53.256;10.386;2023-01-01T08:08:13;15.30;99.90
2625;DHT22;1322;53.256;10.386;2023-01-01T08:10:39;15.30;99.90
2625;DHT22;1322;53.256;10.386;2023-01-01T08:13:06;15.10;99.90
2625;DHT22;1322;53.256;10.386;2023-01-01T08:15:32;15.20;99.90
2625;DHT22;1322;53.256;10.386;2023-01-01T08:18:00;15.20;99.90
2625;DHT22;1322;53.256;10.386;2023-01-01T08:20:28;15.20;99.90
2625;DHT22;1322;53.256;10.386;2023-01-01T08:22:54;15.30;99.90
2625;DHT22;1322;53.256;10.386;2023-01-01T08:25:20;15.20;99.90
2625;DHT22;1322;53.256;10.386;2023-01-01T08:27:45;15.20;99.90
2625;DHT22;1322;53.256;10.386;2023-01-01T08:30:13;15.40;99.90
2625;DHT22;1322;53.256;10.386;2023-01-01T08:32:38;15.40;99.90
2625;DHT22;1322;53.256;10.386;2023-01-01T08:35:04;15.30;99.90
2625;DHT22;1322;53.256;10.386;2023-01-01T08:37:30;15.30;99.90
2625;DHT22;1322;53.256;10.386;2023-01-01T08:39:56;15.40;99.90
2625;DHT22;1322;53.256;10.386;2023-01-01T08:42:22;15.40;99.90
2625;DHT22;1322;53.256;10.386;2023-01-01T08:44:47;15.40;99.90
2625;DHT22;1322;53.256;10.386;2023-01-01T08:47:20;15.40;99.90
2625;DHT22;1322;53.256;10.386;2023-01-01T08:49:46;15.40;99.90
2625;DHT22;1322;53.256;10.386;2023-01-01T08:52:12;15.30;99.90
2625;DHT22;1322;53.256;10.386;2023-01-01T08:54:38;15.30;99.90
2625;DHT22;1322;53.256;10.386;2023-01-01T08:57:04;15.60;99.90
2625;DHT22;1322;53.256;10.386;2023-01-01T08:59:30;15.70;99.90
2625;DHT22;1322;53.256;10.386;2023-01-01T09:01:55;15.20;99.90
2625;DHT22;1322;53.256;10.386;2023-01-01T09:04:21;15.40;99.90
2625;DHT22;1322;53.256;10.386;2023-01-01T09:06:46;15.40;99.90
2625;DHT22;1322;53.256;10.386;2023-01-01T09:09:12;15.30;99.90
2625;DHT22;1322;53.256;10.386;2023-01-01T09:11:38;15.40;99.90
2625;DHT22;1322;53.256;10.386;2023-01-01T09:14:03;15.40;99.90
2625;DHT22;1322;53.256;10.386;2023-01-01T09:16:29;15.50;99.90
2625;DHT22;1322;53.256;10.386;2023-01-01T09:18:54;15.50;99.90
2625;DHT22;1322;53.256;10.386;2023-01-01T09:21:20;15.50;99.90
2625;DHT22;1322;53.256;10.386;2023-01-01T09:23:46;15.50;99.90
2625;DHT22;1322;53.256;10.386;2023-01-01T09:26:11;15.50;99.90
2625;DHT22;1322;53.256;10.386;2023-01-01T09:28:37;15.50;99.90
2625;DHT22;1322;53.256;10.386;2023-01-01T09:31:04;15.50;99.90
2625;DHT22;1322;53.256;10.386;2023-01-01T09:33:31;15.60;99.90
2625;DHT22;1322;53.256;10.386;2023-01-01T09:38:51;15.70;99.90
2625;DHT22;1322;53.256;10.386;2023-01-01T09:41:44;15.60;99.90
2625;DHT22;1322;53.256;10.386;2023-01-01T09:47:05;15.50;99.90
2625;DHT22;1322;53.256;10.386;2023-01-01T09:49:43;15.60;99.90
2625;DHT22;1322;53.256;10.386;2023-01-01T09:52:13;15.60;99.90
2625;DHT22;1322;53.256;10.386;2023-01-01T09:54:40;15.60;99.90
2625;DHT22;1322;53.256;10.386;2023-01-01T09:57:10;15.60;99.90
2625;DHT22;1322;53.256;10.386;2023-01-01T09:59:37;15.60;99.90
2625;DHT22;1322;53.256;10.386;2023-01-01T10:05:49;15.60;99.90
2625;DHT22;1322;53.256;10.386;2023-01-01T10:11:19;15.60;99.90
2625;DHT22;1322;53.256;10.386;2023-01-01T10:13:47;15.60;99.90
2625;DHT22;1322;53.256;10.386;2023-01-01T10:16:36;15.60;99.90
2625;DHT22;1322;53.256;10.386;2023-01-01T10:19:36;15.50;99.90
2625;DHT22;1322;53.256;10.386;2023-01-01T10:22:49;15.70;99.90
2625;DHT22;1322;53.256;10.386;2023-01-01T10:25:00;15.40;99.90
2625;DHT22;1322;53.256;10.386;2023-01-01T10:27:39;15.40;99.90
2625;DHT22;1322;53.256;10.386;2023-01-01T10:30:14;15.50;99.90
2625;DHT22;1322;53.256;10.386;2023-01-01T10:32:41;15.50;99.90
2625;DHT22;1322;53.256;10.386;2023-01-01T10:35:17;15.40;99.90
2625;DHT22;1322;53.256;10.386;2023-01-01T10:37:44;15.50;99.90
2625;DHT22;1322;53.256;10.386;2023-01-01T10:42:51;15.50;99.90
2625;DHT22;1322;53.256;10.386;2023-01-01T10:48:31;15.70;99.90
2625;DHT22;1322;53.256;10.386;2023-01-01T10:51:00;15.60;99.90
2625;DHT22;1322;53.256;10.386;2023-01-01T10:56:11;15.40;99.90
2625;DHT22;1322;53.256;10.386;2023-01-01T10:58:44;15.50;99.90
2625;DHT22;1322;53.256;10.386;2023-01-01T11:01:22;15.40;99.90
2625;DHT22;1322;53.256;10.386;2023-01-01T11:06:36;15.30;99.90
2625;DHT22;1322;53.256;10.386;2023-01-01T11:09:41;15.30;99.90
2625;DHT22;1322;53.256;10.386;2023-01-01T11:12:16;15.40;99.90
2625;DHT22;1322;53.256;10.386;2023-01-01T11:14:51;15.40;99.90
2625;DHT22;1322;53.256;10.386;2023-01-01T11:17:32;15.40;99.90
2625;DHT22;1322;53.256;10.386;2023-01-01T11:19:59;15.40;99.90
2625;DHT22;1322;53.256;10.386;2023-01-01T11:22:39;15.40;99.90
2625;DHT22;1322;53.256;10.386;2023-01-01T11:27:42;15.20;99.90
2625;DHT22;1322;53.256;10.386;2023-01-01T11:30:28;15.20;99.90
2625;DHT22;1322;53.256;10.386;2023-01-01T11:32:59;15.20;99.90
2625;DHT22;1322;53.256;10.386;2023-01-01T11:35:30;15.00;99.90
2625;DHT22;1322;53.256;10.386;2023-01-01T11:37:58;14.90;99.90
2625;DHT22;1322;53.256;10.386;2023-01-01T11:40:36;14.80;99.90
2625;DHT22;1322;53.256;10.386;2023-01-01T11:43:04;14.90;99.90
2625;DHT22;1322;53.256;10.386;2023-01-01T11:45:38;14.90;99.90
2625;DHT22;1322;53.256;10.386;2023-01-01T11:48:15;14.90;99.90
2625;DHT22;1322;53.256;10.386;2023-01-01T11:50:50;14.80;99.90
2625;DHT22;1322;53.256;10.386;2023-01-01T11:58:54;14.80;99.90
2625;DHT22;1322;53.256;10.386;2023-01-01T12:01:25;14.80;99.90
2625;DHT22;1322;53.256;10.386;2023-01-01T12:06:37;14.70;99.90
2625;DHT22;1322;53.256;10.386;2023-01-01T12:09:28;14.70;99.90
2625;DHT22;1322;53.256;10.386;2023-01-01T12:11:59;14.90;99.90
2625;DHT22;1322;53.256;10.386;2023-01-01T12:17:13;14.80;99.90
2625;DHT22;1322;53.256;10.386;2023-01-01T12:22:24;14.80;99.90
2625;DHT22;1322;53.256;10.386;2023-01-01T12:24:51;14.60;99.90
2625;DHT22;1322;53.256;10.386;2023-01-01T12:43:26;14.30;99.90
2625;DHT22;1322;53.256;10.386;2023-01-01T12:51:33;14.30;99.90
2625;DHT22;1322;53.256;10.386;2023-01-01T12:54:38;14.20;99.90
2625;DHT22;1322;53.256;10.386;2023-01-01T12:59:44;14.00;99.90
2625;DHT22;1322;53.256;10.386;2023-01-01T13:02:20;14.00;99.90
2625;DHT22;1322;53.256;10.386;2023-01-01T13:04:51;14.10;99.90
2625;DHT22;1322;53.256;10.386;2023-01-01T13:07:27;14.00;99.90
2625;DHT22;1322;53.256;10.386;2023-01-01T13:09:54;14.00;99.90
2625;DHT22;1322;53.256;10.386;2023-01-01T13:12:22;14.20;99.90
2625;DHT22;1322;53.256;10.386;2023-01-01T13:14:50;14.10;99.90
2625;DHT22;1322;53.256;10.386;2023-01-01T13:17:21;14.20;99.90
2625;DHT22;1322;53.256;10.386;2023-01-01T13:19:55;14.30;99.90
2625;DHT22;1322;53.256;10.386;2023-01-01T13:33:29;14.30;99.90
2625;DHT22;1322;53.256;10.386;2023-01-01T13:38:46;14.10;99.90
2625;DHT22;1322;53.256;10.386;2023-01-01T13:43:51;14.10;99.90
2625;DHT22;1322;53.256;10.386;2023-01-01T13:46:22;14.10;99.90
2625;DHT22;1322;53.256;10.386;2023-01-01T13:54:28;13.90;99.90
2625;DHT22;1322;53.256;10.386;2023-01-01T13:57:03;13.90;99.90
2625;DHT22;1322;53.256;10.386;2023-01-01T14:02:21;13.90;99.90
2625;DHT22;1322;53.256;10.386;2023-01-01T14:07:36;13.90;99.90
2625;DHT22;1322;53.256;10.386;2023-01-01T14:10:34;13.70;99.90
2625;DHT22;1322;53.256;10.386;2023-01-01T14:15:37;13.80;99.90
2625;DHT22;1322;53.256;10.386;2023-01-01T14:18:09;14.00;99.90
2625;DHT22;1322;53.256;10.386;2023-01-01T14:20:44;13.90;99.90
2625;DHT22;1322;53.256;10.386;2023-01-01T14:23:19;13.90;99.90
2625;DHT22;1322;53.256;10.386;2023-01-01T14:25:47;13.80;99.90
2625;DHT22;1322;53.256;10.386;2023-01-01T14:28:28;13.90;99.90
2625;DHT22;1322;53.256;10.386;2023-01-01T14:30:55;13.80;99.90
2625;DHT22;1322;53.256;10.386;2023-01-01T14:33:24;13.80;99.90
2625;DHT22;1322;53.256;10.386;2023-01-01T14:35:56;13.80;99.90
2625;DHT22;1322;53.256;10.386;2023-01-01T14:38:24;13.80;99.90
2625;DHT22;1322;53.256;10.386;2023-01-01T14:43:44;13.90;99.90
2625;DHT22;1322;53.256;10.386;2023-01-01T14:46:22;13.90;99.90
2625;DHT22;1322;53.256;10.386;2023-01-01T14:48:56;13.90;99.90
2625;DHT22;1322;53.256;10.386;2023-01-01T14:51:29;13.90;99.90
2625;DHT22;1322;53.256;10.386;2023-01-01T14:54:01;13.90;99.90
2625;DHT22;1322;53.256;10.386;2023-01-01T14:56:28;13.80;99.90
2625;DHT22;1322;53.256;10.386;2023-01-01T14:59:12;13.70;99.90
2625;DHT22;1322;53.256;10.386;2023-01-01T15:01:40;13.70;99.90
2625;DHT22;1322;53.256;10.386;2023-01-01T15:04:19;13.70;99.90
2625;DHT22;1322;53.256;10.386;2023-01-01T15:06:55;13.50;99.90
2625;DHT22;1322;53.256;10.386;2023-01-01T15:09:22;13.60;99.90
2625;DHT22;1322;53.256;10.386;2023-01-01T15:11:55;13.60;99.90
2625;DHT22;1322;53.256;10.386;2023-01-01T15:14:35;13.80;99.90
2625;DHT22;1322;53.256;10.386;2023-01-01T15:17:02;13.60;99.90
2625;DHT22;1322;53.256;10.386;2023-01-01T15:19:28;13.60;99.90
2625;DHT22;1322;53.256;10.386;2023-01-01T15:21:54;13.60;99.90
2625;DHT22;1322;53.256;10.386;2023-01-01T15:24:20;13.60;99.90
2625;DHT22;1322;53.256;10.386;2023-01-01T15:26:53;13.50;99.90
2625;DHT22;1322;53.256;10.386;2023-01-01T15:29:30;13.50;99.90
2625;DHT22;1322;53.256;10.386;2023-01-01T15:32:00;13.50;99.90
2625;DHT22;1322;53.256;10.386;2023-01-01T15:34:50;13.50;99.90
2625;DHT22;1322;53.256;10.386;2023-01-01T15:39:47;13.50;99.90
2625;DHT22;1322;53.256;10.386;2023-01-01T15:42:34;13.50;99.90
2625;DHT22;1322;53.256;10.386;2023-01-01T15:45:30;13.40;99.90
2625;DHT22;1322;53.256;10.386;2023-01-01T15:50:42;13.30;99.90
2625;DHT22;1322;53.256;10.386;2023-01-01T15:53:22;13.20;99.90
2625;DHT22;1322;53.256;10.386;2023-01-01T15:55:59;13.20;99.90
2625;DHT22;1322;53.256;10.386;2023-01-01T15:58:31;13.10;99.90
2625;DHT22;1322;53.256;10.386;2023-01-01T16:01:00;13.10;99.90
2625;DHT22;1322;53.256;10.386;2023-01-01T16:03:28;13.10;99.90
2625;DHT22;1322;53.256;10.386;2023-01-01T16:05:55;13.00;99.90
2625;DHT22;1322;53.256;10.386;2023-01-01T16:08:21;13.10;99.90
2625;DHT22;1322;53.256;10.386;2023-01-01T16:10:47;13.30;99.90
2625;DHT22;1322;53.256;10.386;2023-01-01T16:13:14;13.10;99.90
2625;DHT22;1322;53.256;10.386;2023-01-01T16:15:59;13.10;99.90
2625;DHT22;1322;53.256;10.386;2023-01-01T16:18:32;13.10;99.90
2625;DHT22;1322;53.256;10.386;2023-01-01T16:20:58;13.10;99.90
2625;DHT22;1322;53.256;10.386;2023-01-01T16:23:27;12.90;99.90
2625;DHT22;1322;53.256;10.386;2023-01-01T16:25:53;12.90;99.90
2625;DHT22;1322;53.256;10.386;2023-01-01T16:28:19;13.00;99.90
2625;DHT22;1322;53.256;10.386;2023-01-01T16:30:45;12.90;99.90
2625;DHT22;1322;53.256;10.386;2023-01-01T16:33:16;12.90;99.90
2625;DHT22;1322;53.256;10.386;2023-01-01T16:35:43;12.90;99.90
2625;DHT22;1322;53.256;10.386;2023-01-01T16:38:09;13.00;99.90
2625;DHT22;1322;53.256;10.386;2023-01-01T16:40:35;12.90;99.90
2625;DHT22;1322;53.256;10.386;2023-01-01T16:43:01;13.00;99.90
2625;DHT22;1322;53.256;10.386;2023-01-01T16:45:27;12.90;99.90
2625;DHT22;1322;53.256;10.386;2023-01-01T16:47:53;12.90;99.90
2625;DHT22;1322;53.256;10.386;2023-01-01T16:50:20;12.80;99.90
2625;DHT22;1322;53.256;10.386;2023-01-01T16:52:45;12.70;99.90
2625;DHT22;1322;53.256;10.386;2023-01-01T16:55:11;12.80;99.90
2625;DHT22;1322;53.256;10.386;2023-01-01T16:57:37;12.80;99.90
2625;DHT22;1322;53.256;10.386;2023-01-01T17:00:05;12.80;99.90
2625;DHT22;1322;53.256;10.386;2023-01-01T17:02:31;12.70;99.90
2625;DHT22;1322;53.256;10.386;2023-01-01T17:04:57;12.70;99.90
2625;DHT22;1322;53.256;10.386;2023-01-01T17:07:23;12.80;99.90
2625;DHT22;1322;53.256;10.386;2023-01-01T17:09:49;12.80;99.90
2625;DHT22;1322;53.256;10.386;2023-01-01T17:12:15;12.80;99.90
2625;DHT22;1322;53.256;10.386;2023-01-01T17:14:41;12.80;99.90
2625;DHT22;1322;53.256;10.386;2023-01-01T17:17:06;12.80;99.90
2625;DHT22;1322;53.256;10.386;2023-01-01T17:19:32;12.80;99.90
2625;DHT22;1322;53.256;10.386;2023-01-01T17:21:58;12.90;99.90
2625;DHT22;1322;53.256;10.386;2023-01-01T17:24:23;12.80;99.90
2625;DHT22;1322;53.256;10.386;2023-01-01T17:26:51;12.80;99.90
2625;DHT22;1322;53.256;10.386;2023-01-01T17:29:17;12.80;99.90
2625;DHT22;1322;53.256;10.386;2023-01-01T17:31:43;12.80;99.90
2625;DHT22;1322;53.256;10.386;2023-01-01T17:34:09;12.70;99.90
2625;DHT22;1322;53.256;10.386;2023-01-01T17:36:39;12.70;99.90
2625;DHT22;1322;53.256;10.386;2023-01-01T17:39:04;12.60;99.90
2625;DHT22;1322;53.256;10.386;2023-01-01T17:41:30;12.60;99.90
2625;DHT22;1322;53.256;10.386;2023-01-01T17:43:57;12.40;99.90
2625;DHT22;1322;53.256;10.386;2023-01-01T17:46:24;12.60;99.90
2625;DHT22;1322;53.256;10.386;2023-01-01T17:48:50;12.50;99.90
2625;DHT22;1322;53.256;10.386;2023-01-01T17:51:17;12.50;99.90
2625;DHT22;1322;53.256;10.386;2023-01-01T17:53:43;12.60;99.90
2625;DHT22;1322;53.256;10.386;2023-01-01T17:56:10;12.60;99.90
2625;DHT22;1322;53.256;10.386;2023-01-01T17:58:40;12.50;99.90
2625;DHT22;1322;53.256;10.386;2023-01-01T18:03:43;12.80;99.90
2625;DHT22;1322;53.256;10.386;2023-01-01T18:06:09;12.60;99.90
2625;DHT22;1322;53.256;10.386;2023-01-01T18:08:34;12.60;99.90
2625;DHT22;1322;53.256;10.386;2023-01-01T18:11:00;12.70;99.90